createdAt,value
2022-08-26T00:01:53.857Z,52.93
2022-08-26T00:04:25.075Z,52.27
2022-08-26T00:06:54.141Z,46.27
2022-08-26T00:09:22.771Z,45.47
2022-08-26T00:11:53.360Z,45.13
2022-08-26T00:14:21.588Z,48.03
2022-08-26T00:16:49.936Z,45.53
2022-08-26T00:19:18.751Z,43.87
2022-08-26T00:21:50.324Z,39.27
2022-08-26T00:24:20.272Z,40.13
2022-08-26T00:26:48.648Z,38.23
2022-08-26T00:29:17.694Z,38.10
2022-08-26T00:31:46.007Z,42.13
2022-08-26T00:34:15.899Z,38.20
2022-08-26T00:36:47.707Z,40.63
2022-08-26T00:39:19.907Z,40.33
2022-08-26T00:41:48.612Z,42.20
2022-08-26T00:44:16.960Z,34.60
2022-08-26T00:46:47.087Z,37.80
2022-08-26T00:49:17.629Z,31.20
2022-08-26T00:51:49.108Z,32.87
2022-08-26T00:54:19.174Z,27.40
2022-08-26T00:56:50.753Z,26.87
2022-08-26T00:59:19.605Z,25.67
2022-08-26T01:01:47.935Z,23.23
2022-08-26T01:04:19.536Z,25.33
2022-08-26T01:06:48.499Z,27.70
2022-08-26T01:09:16.964Z,20.27
2022-08-26T01:11:47.804Z,28.43
2022-08-26T01:14:16.296Z,21.50
2022-08-26T01:16:47.470Z,23.87
2022-08-26T01:19:20.557Z,26.87
2022-08-26T01:21:50.926Z,22.13
2022-08-26T01:24:20.807Z,19.63
2022-08-26T01:26:49.791Z,20.73
2022-08-26T01:29:20.187Z,24.53
2022-08-26T01:31:51.357Z,25.47
2022-08-26T01:34:22.068Z,17.73
2022-08-26T01:36:51.795Z,20.47
2022-08-26T01:39:21.548Z,21.50
2022-08-26T01:41:53.599Z,23.37
2022-08-26T01:44:24.101Z,19.40
2022-08-26T01:46:53.913Z,23.47
2022-08-26T01:49:22.828Z,20.17
2022-08-26T01:51:55.437Z,25.03
2022-08-26T01:54:26.034Z,22.80
2022-08-26T01:56:55.844Z,28.57
2022-08-26T01:59:25.207Z,18.53
2022-08-26T02:01:53.635Z,21.97
2022-08-26T02:04:23.819Z,20.43
2022-08-26T02:06:53.462Z,19.63
2022-08-26T02:09:22.287Z,23.37
2022-08-26T02:11:52.383Z,19.93
2022-08-26T02:14:22.176Z,18.57
2022-08-26T02:16:52.171Z,21.07
2022-08-26T02:19:21.800Z,18.10
2022-08-26T02:21:52.504Z,17.70
2022-08-26T02:24:22.260Z,16.00
2022-08-26T02:26:53.752Z,14.77
2022-08-26T02:29:24.522Z,18.77
2022-08-26T02:31:52.925Z,16.87
2022-08-26T02:34:22.779Z,24.57
2022-08-26T02:36:51.328Z,16.80
2022-08-26T02:39:22.004Z,14.40
2022-08-26T02:41:50.860Z,20.87
2022-08-26T02:44:20.497Z,19.30
2022-08-26T02:46:49.126Z,18.47
2022-08-26T02:49:19.372Z,19.83
2022-08-26T02:51:49.477Z,17.33
2022-08-26T02:54:18.097Z,13.13
2022-08-26T02:56:46.506Z,20.80
2022-08-26T02:59:15.324Z,17.13
2022-08-26T03:01:47.253Z,13.23
2022-08-26T03:04:15.872Z,12.07
2022-08-26T03:06:44.119Z,16.53
2022-08-26T03:09:21.160Z,12.63
2022-08-26T03:11:49.405Z,19.37
2022-08-26T03:14:17.636Z,16.90
2022-08-26T03:16:48.573Z,16.23
2022-08-26T03:19:17.684Z,26.10
2022-08-26T03:21:47.355Z,14.53
2022-08-26T03:24:17.144Z,20.20
2022-08-26T03:26:52.572Z,16.23
2022-08-26T03:29:39.222Z,13.97
2022-08-26T03:32:08.964Z,17.77
2022-08-26T03:34:37.506Z,16.67
2022-08-26T03:37:07.044Z,21.40
2022-08-26T03:39:35.271Z,17.33
2022-08-26T03:42:03.464Z,17.10
2022-08-26T03:44:31.748Z,19.93
2022-08-26T03:47:00.924Z,12.17
2022-08-26T03:49:34.142Z,12.33
2022-08-26T03:52:02.355Z,18.70
2022-08-26T03:54:32.023Z,16.33
2022-08-26T03:57:00.251Z,12.37
2022-08-26T03:59:28.675Z,14.83
2022-08-26T04:01:58.087Z,14.67
2022-08-26T04:04:26.583Z,13.10
2022-08-26T04:06:59.330Z,13.23
2022-08-26T04:09:28.539Z,17.50
2022-08-26T04:11:58.531Z,18.67
2022-08-26T04:14:27.568Z,13.30
2022-08-26T04:16:56.551Z,23.93
2022-08-26T04:19:26.112Z,17.07
2022-08-26T04:21:54.620Z,16.53
2022-08-26T04:24:25.177Z,14.97
2022-08-26T04:26:53.815Z,15.90
2022-08-26T04:29:23.944Z,13.10
2022-08-26T04:31:55.338Z,15.13
2022-08-26T04:34:24.447Z,14.63
2022-08-26T04:36:55.987Z,17.33
2022-08-26T04:39:25.584Z,14.33
2022-08-26T04:41:56.081Z,16.47
2022-08-26T04:44:28.395Z,15.70
2022-08-26T04:46:57.755Z,16.40
2022-08-26T04:49:26.219Z,17.47
2022-08-26T04:51:56.139Z,13.97
2022-08-26T04:54:26.049Z,18.33
2022-08-26T04:56:55.048Z,20.40
2022-08-26T04:59:23.519Z,17.73
2022-08-26T05:01:56.253Z,20.37
2022-08-26T05:04:24.707Z,16.47
2022-08-26T05:06:56.752Z,18.40
2022-08-26T05:09:29.331Z,16.00
2022-08-26T05:11:58.689Z,18.20
2022-08-26T05:14:26.917Z,16.70
2022-08-26T05:16:55.848Z,17.30
2022-08-26T05:19:24.734Z,19.43
2022-08-26T05:21:56.099Z,14.77
2022-08-26T05:24:25.295Z,17.40
2022-08-26T05:26:54.920Z,19.77
2022-08-26T05:29:24.871Z,19.03
2022-08-26T05:31:53.532Z,18.53
2022-08-26T05:34:24.293Z,19.47
2022-08-26T05:36:58.444Z,14.43
2022-08-26T05:39:26.699Z,14.80
2022-08-26T05:41:56.251Z,16.60
2022-08-26T05:44:24.633Z,13.43
2022-08-26T05:46:53.170Z,14.80
2022-08-26T05:49:22.563Z,13.00
2022-08-26T05:51:54.672Z,14.17
2022-08-26T05:54:22.932Z,17.23
2022-08-26T05:56:51.626Z,14.60
2022-08-26T05:59:21.420Z,15.40
2022-08-26T06:01:53.490Z,14.37
2022-08-26T06:04:22.576Z,14.27
2022-08-26T06:06:53.465Z,15.93
2022-08-26T06:09:21.705Z,11.50
2022-08-26T06:11:50.064Z,14.37
2022-08-26T06:14:18.509Z,12.70
2022-08-26T06:16:48.125Z,13.80
2022-08-26T06:19:17.229Z,10.33
2022-08-26T06:21:51.330Z,10.67
2022-08-26T06:24:40.283Z,12.77
2022-08-26T06:27:11.476Z,9.53
2022-08-26T06:29:41.863Z,12.77
2022-08-26T06:32:11.549Z,13.53
2022-08-26T06:34:39.816Z,11.50
2022-08-26T06:37:08.774Z,10.53
2022-08-26T06:39:40.112Z,11.77
2022-08-26T06:42:09.543Z,13.67
2022-08-26T06:44:41.026Z,13.27
2022-08-26T06:47:10.753Z,10.63
2022-08-26T06:49:39.830Z,10.67
2022-08-26T06:52:08.455Z,16.70
2022-08-26T06:54:37.031Z,10.17
2022-08-26T06:57:07.263Z,12.03
2022-08-26T06:59:35.505Z,10.87
2022-08-26T07:02:03.790Z,10.57
2022-08-26T07:04:33.400Z,7.80
2022-08-26T07:07:01.755Z,13.23
2022-08-26T07:09:33.094Z,10.43
2022-08-26T07:12:01.751Z,11.87
2022-08-26T07:14:31.668Z,8.47
2022-08-26T07:17:01.295Z,8.27
2022-08-26T07:19:31.185Z,7.93
2022-08-26T07:22:03.261Z,12.03
2022-08-26T07:24:32.285Z,7.80
2022-08-26T07:27:01.728Z,10.93
2022-08-26T07:29:31.155Z,6.50
2022-08-26T07:31:59.680Z,10.37
2022-08-26T07:34:28.185Z,7.73
2022-08-26T07:36:56.768Z,10.30
2022-08-26T07:39:27.145Z,8.23
2022-08-26T07:41:55.386Z,11.27
2022-08-26T07:44:23.986Z,10.93
2022-08-26T07:46:53.462Z,7.17
2022-08-26T07:49:22.939Z,9.07
2022-08-26T07:51:51.260Z,11.93
2022-08-26T07:54:20.119Z,7.90
2022-08-26T07:56:54.220Z,11.77
2022-08-26T07:59:24.272Z,7.47
2022-08-26T08:01:52.823Z,9.57
2022-08-26T08:04:26.244Z,14.23
2022-08-26T08:06:55.325Z,12.03
2022-08-26T08:09:23.691Z,10.87
2022-08-26T08:11:57.461Z,11.23
2022-08-26T08:14:25.692Z,9.20
2022-08-26T08:16:54.691Z,8.63
2022-08-26T08:19:24.367Z,15.93
2022-08-26T08:22:05.273Z,7.27
2022-08-26T08:24:46.032Z,9.67
2022-08-26T08:27:23.410Z,13.27
2022-08-26T08:29:54.250Z,11.70
2022-08-26T08:32:23.284Z,7.30
2022-08-26T08:34:51.681Z,8.63
2022-08-26T08:37:20.012Z,8.03
2022-08-26T08:39:49.272Z,9.30
2022-08-26T08:42:35.659Z,7.73
2022-08-26T08:45:06.917Z,10.80
2022-08-26T08:47:37.701Z,10.73
2022-08-26T08:50:08.333Z,7.53
2022-08-26T08:52:37.788Z,10.10
2022-08-26T08:55:11.058Z,7.80
2022-08-26T08:57:45.963Z,16.47
2022-08-26T09:00:17.828Z,8.33
2022-08-26T09:02:51.652Z,9.67
2022-08-26T09:05:22.179Z,9.90
2022-08-26T09:07:52.141Z,7.50
2022-08-26T09:10:28.856Z,8.60
2022-08-26T09:12:58.901Z,6.97
2022-08-26T09:15:30.534Z,6.47
2022-08-26T09:18:04.566Z,6.03
2022-08-26T09:20:39.042Z,6.63
2022-08-26T09:23:07.932Z,6.53
2022-08-26T09:25:46.191Z,9.33
2022-08-26T09:28:18.644Z,8.60
2022-08-26T09:30:47.871Z,8.87
2022-08-26T09:33:18.138Z,7.77
2022-08-26T09:35:48.823Z,5.77
2022-08-26T09:38:26.599Z,7.93
2022-08-26T09:40:59.519Z,8.10
2022-08-26T09:43:29.661Z,6.80
2022-08-26T09:46:11.218Z,8.87
2022-08-26T09:48:41.092Z,10.13
2022-08-26T09:51:27.680Z,10.90
2022-08-26T09:53:56.947Z,7.17
2022-08-26T09:56:27.862Z,6.50
2022-08-26T09:58:58.513Z,4.47
2022-08-26T10:01:33.366Z,9.37
2022-08-26T10:04:07.320Z,9.73
2022-08-26T10:06:38.193Z,7.67
2022-08-26T10:09:09.790Z,8.30
2022-08-26T10:11:41.348Z,8.73
2022-08-26T10:14:13.645Z,11.33
2022-08-26T10:16:45.995Z,12.00
2022-08-26T10:19:15.941Z,7.20
2022-08-26T10:21:53.061Z,7.47
2022-08-26T10:24:23.991Z,12.43
2022-08-26T10:26:59.109Z,8.50
2022-08-26T10:29:34.153Z,7.00
2022-08-26T10:32:03.709Z,7.83
2022-08-26T10:34:33.111Z,7.23
2022-08-26T10:37:13.487Z,5.63
2022-08-26T10:39:46.222Z,7.33
2022-08-26T10:42:17.937Z,7.23
2022-08-26T10:44:49.505Z,8.27
2022-08-26T10:47:20.621Z,8.03
2022-08-26T10:49:50.890Z,8.13
2022-08-26T10:52:22.514Z,4.70
2022-08-26T10:55:01.849Z,8.60
2022-08-26T10:57:40.083Z,4.73
2022-08-26T11:00:27.494Z,15.90
2022-08-26T11:02:58.917Z,5.20
2022-08-26T11:05:27.235Z,8.17
2022-08-26T11:08:15.787Z,5.03
2022-08-26T11:10:57.963Z,7.03
2022-08-26T11:13:42.328Z,5.70
2022-08-26T11:16:12.379Z,6.90
2022-08-26T11:18:45.643Z,6.73
2022-08-26T11:21:31.789Z,6.07
2022-08-26T11:24:00.012Z,7.67
2022-08-26T11:26:55.427Z,5.60
2022-08-26T11:29:39.080Z,6.33
2022-08-26T11:32:24.828Z,5.63
2022-08-26T11:34:56.569Z,4.10
2022-08-26T11:37:27.899Z,6.00
2022-08-26T11:39:57.234Z,2.80
2022-08-26T11:42:31.081Z,11.87
2022-08-26T11:45:01.405Z,5.53
2022-08-26T11:47:33.403Z,6.43
2022-08-26T11:50:09.422Z,4.97
2022-08-26T11:52:38.564Z,6.17
2022-08-26T11:55:09.149Z,8.00
2022-08-26T11:57:42.169Z,6.97
2022-08-26T12:00:13.633Z,6.87
2022-08-26T12:02:44.641Z,7.27
2022-08-26T12:05:14.608Z,6.87
2022-08-26T12:07:42.864Z,5.07
2022-08-26T12:10:12.530Z,8.10
2022-08-26T12:12:42.424Z,6.60
2022-08-26T12:15:13.900Z,4.87
2022-08-26T12:17:42.492Z,6.67
2022-08-26T12:20:20.673Z,7.83
2022-08-26T12:22:48.978Z,7.13
2022-08-26T12:25:23.591Z,7.13
2022-08-26T12:27:53.666Z,6.40
2022-08-26T12:30:24.121Z,3.00
2022-08-26T12:32:58.171Z,9.03
2022-08-26T12:35:29.527Z,6.47
2022-08-26T12:37:58.186Z,7.73
2022-08-26T12:40:27.610Z,7.57
2022-08-26T12:42:56.424Z,4.87
2022-08-26T12:45:28.813Z,6.70
2022-08-26T12:47:59.509Z,11.60
2022-08-26T12:50:30.037Z,10.97
2022-08-26T12:53:00.990Z,8.37
2022-08-26T12:55:37.068Z,3.83
2022-08-26T12:58:12.612Z,9.17
2022-08-26T13:00:42.304Z,3.90
2022-08-26T13:03:44.480Z,4.67
2022-08-26T13:06:16.422Z,4.53
2022-08-26T13:08:45.566Z,6.50
2022-08-26T13:11:18.403Z,4.73
2022-08-26T13:13:47.337Z,3.77
2022-08-26T13:16:16.545Z,8.43
2022-08-26T13:18:44.827Z,4.20
2022-08-26T13:21:15.259Z,8.63
2022-08-26T13:23:43.456Z,5.60
2022-08-26T13:26:11.691Z,7.33
2022-08-26T13:28:39.978Z,6.70
2022-08-26T13:31:08.329Z,7.87
2022-08-26T13:33:36.617Z,4.80
2022-08-26T13:36:05.861Z,6.77
2022-08-26T13:38:35.417Z,5.53
2022-08-26T13:41:05.789Z,6.47
2022-08-26T13:43:34.469Z,8.07
2022-08-26T13:46:03.133Z,6.30
2022-08-26T13:48:31.373Z,7.20
2022-08-26T13:51:00.047Z,5.33
2022-08-26T13:53:29.385Z,7.17
2022-08-26T13:55:59.240Z,7.93
2022-08-26T13:58:27.829Z,8.70
2022-08-26T14:00:56.845Z,5.20
2022-08-26T14:03:25.663Z,4.97
2022-08-26T14:05:54.977Z,7.40
2022-08-26T14:08:23.723Z,6.43
2022-08-26T14:10:51.940Z,8.33
2022-08-26T14:13:21.732Z,8.03
2022-08-26T14:15:50.481Z,7.17
2022-08-26T14:18:19.947Z,7.60
2022-08-26T14:20:52.347Z,7.10
2022-08-26T14:23:20.838Z,5.87
2022-08-26T14:25:49.250Z,6.17
2022-08-26T14:28:17.524Z,7.07
2022-08-26T14:30:49.567Z,5.67
2022-08-26T14:33:17.856Z,6.40
2022-08-26T14:35:48.868Z,4.10
2022-08-26T14:38:18.129Z,6.37
2022-08-26T14:40:46.825Z,8.73
2022-08-26T14:43:16.128Z,4.37
2022-08-26T14:45:45.534Z,5.93
2022-08-26T14:48:15.197Z,3.63
2022-08-26T14:50:43.447Z,6.07
2022-08-26T14:53:29.279Z,6.83
2022-08-26T14:55:57.541Z,5.87
2022-08-26T14:58:25.736Z,7.03
2022-08-26T15:01:04.353Z,5.97
2022-08-26T15:03:34.153Z,5.93
2022-08-26T15:06:02.384Z,4.47
2022-08-26T15:08:31.801Z,6.33
2022-08-26T15:11:00.348Z,5.10
2022-08-26T15:13:28.613Z,8.57
2022-08-26T15:15:56.888Z,7.00
2022-08-26T15:18:25.145Z,7.77
2022-08-26T15:20:54.744Z,8.20
2022-08-26T15:23:23.054Z,6.10
2022-08-26T15:25:51.320Z,6.57
2022-08-26T15:28:19.578Z,5.33
2022-08-26T15:30:51.024Z,5.27
2022-08-26T15:33:19.444Z,6.73
2022-08-26T15:35:47.620Z,6.53
2022-08-26T15:38:17.990Z,6.73
2022-08-26T15:40:46.768Z,5.73
2022-08-26T15:43:27.768Z,6.30
2022-08-26T15:45:56.799Z,6.70
2022-08-26T15:48:25.520Z,8.23
2022-08-26T15:50:54.788Z,10.43
2022-08-26T15:53:24.744Z,6.00
2022-08-26T15:55:54.549Z,7.30
2022-08-26T15:58:24.078Z,10.87
2022-08-26T16:00:54.800Z,12.87
2022-08-26T16:03:23.629Z,7.67
2022-08-26T16:05:52.051Z,6.00
2022-08-26T16:08:20.591Z,10.67
2022-08-26T16:10:51.249Z,5.03
2022-08-26T16:13:20.184Z,6.27
2022-08-26T16:15:48.607Z,6.60
2022-08-26T16:18:17.376Z,4.70
2022-08-26T16:20:50.166Z,7.57
2022-08-26T16:23:38.339Z,5.37
2022-08-26T16:26:10.963Z,8.07
2022-08-26T16:28:39.311Z,5.97
2022-08-26T16:31:08.293Z,8.50
2022-08-26T16:33:37.644Z,10.43
2022-08-26T16:36:06.114Z,5.57
2022-08-26T16:38:34.785Z,6.33
2022-08-26T16:41:03.303Z,8.17
2022-08-26T16:43:32.884Z,5.37
2022-08-26T16:46:01.206Z,9.17
2022-08-26T16:48:29.494Z,4.67
2022-08-26T16:50:57.787Z,5.33
2022-08-26T16:53:26.017Z,5.37
2022-08-26T16:55:54.397Z,8.53
2022-08-26T16:58:22.635Z,4.67
2022-08-26T17:00:52.227Z,4.67
2022-08-26T17:03:20.500Z,4.23
2022-08-26T17:05:48.749Z,7.20
2022-08-26T17:08:24.378Z,5.67
2022-08-26T17:10:57.058Z,6.23
2022-08-26T17:13:34.611Z,7.03
2022-08-26T17:16:06.399Z,4.97
2022-08-26T17:18:35.312Z,9.50
2022-08-26T17:21:03.851Z,4.73
2022-08-26T17:23:32.116Z,6.10
2022-08-26T17:26:00.377Z,7.17
2022-08-26T17:28:28.606Z,8.13
2022-08-26T17:30:58.006Z,7.93
2022-08-26T17:33:27.653Z,7.90
2022-08-26T17:35:56.836Z,6.50
2022-08-26T17:38:25.153Z,9.43
2022-08-26T17:40:53.636Z,7.67
2022-08-26T17:43:21.855Z,6.00
2022-08-26T17:45:50.690Z,5.13
2022-08-26T17:48:18.986Z,5.33
2022-08-26T17:50:49.407Z,8.60
2022-08-26T17:53:18.831Z,4.60
2022-08-26T17:55:47.975Z,8.83
2022-08-26T17:58:16.489Z,8.20
2022-08-26T18:00:45.214Z,7.67
2022-08-26T18:03:13.576Z,6.67
2022-08-26T18:05:42.338Z,10.07
2022-08-26T18:08:11.955Z,6.60
2022-08-26T18:10:42.435Z,5.13
2022-08-26T18:13:10.804Z,6.23
2022-08-26T18:15:41.094Z,8.80
2022-08-26T18:18:09.568Z,5.87
2022-08-26T18:20:39.371Z,5.50
2022-08-26T18:23:07.620Z,4.03
2022-08-26T18:25:39.823Z,4.80
2022-08-26T18:28:08.078Z,5.30
2022-08-26T18:30:36.394Z,6.60
2022-08-26T18:33:04.653Z,4.17
2022-08-26T18:35:32.909Z,6.70
2022-08-26T18:38:02.826Z,4.27
2022-08-26T18:40:41.264Z,6.07
2022-08-26T18:43:09.532Z,7.47
2022-08-26T18:45:38.198Z,6.23
2022-08-26T18:48:06.844Z,5.50
2022-08-26T18:50:35.269Z,4.83
2022-08-26T18:53:03.534Z,5.83
2022-08-26T18:55:31.880Z,4.87
2022-08-26T18:58:01.476Z,5.13
2022-08-26T19:00:31.476Z,3.37
2022-08-26T19:02:59.847Z,3.80
2022-08-26T19:05:29.081Z,2.97
2022-08-26T19:07:57.300Z,4.77
2022-08-26T19:10:25.628Z,4.40
2022-08-26T19:12:56.309Z,4.20
2022-08-26T19:15:28.324Z,5.10
2022-08-26T19:17:56.899Z,3.60
2022-08-26T19:20:25.568Z,7.03
2022-08-26T19:22:53.917Z,4.60
2022-08-26T19:25:22.156Z,8.23
2022-08-26T19:27:50.404Z,6.83
2022-08-26T19:30:18.643Z,4.77
2022-08-26T19:32:48.247Z,7.73
2022-08-26T19:35:16.536Z,4.37
2022-08-26T19:37:44.852Z,5.67
2022-08-26T19:40:13.320Z,5.60
2022-08-26T19:42:41.608Z,5.20
2022-08-26T19:45:24.411Z,3.93
2022-08-26T19:47:55.128Z,6.77
2022-08-26T19:50:23.641Z,6.27
2022-08-26T19:52:51.928Z,5.87
2022-08-26T19:55:20.952Z,6.13
2022-08-26T19:57:50.111Z,7.67
2022-08-26T20:00:19.473Z,4.23
2022-08-26T20:02:48.198Z,4.90
2022-08-26T20:05:20.329Z,3.80
2022-08-26T20:07:48.560Z,6.43
2022-08-26T20:10:18.118Z,6.87
2022-08-26T20:12:46.377Z,4.70
2022-08-26T20:15:14.950Z,5.00
2022-08-26T20:17:43.238Z,5.77
2022-08-26T20:20:33.764Z,3.83
2022-08-26T20:23:05.285Z,5.60
2022-08-26T20:25:34.023Z,6.43
2022-08-26T20:28:02.584Z,12.70
2022-08-26T20:30:30.961Z,6.33
2022-08-26T20:32:59.170Z,7.70
2022-08-26T20:35:27.398Z,13.27
2022-08-26T20:37:55.645Z,8.30
2022-08-26T20:40:25.366Z,11.87
2022-08-26T20:42:53.634Z,14.60
2022-08-26T20:45:22.200Z,11.57
2022-08-26T20:47:50.556Z,14.03
2022-08-26T20:50:18.832Z,14.97
2022-08-26T20:52:47.251Z,13.60
2022-08-26T20:55:15.559Z,12.90
2022-08-26T20:57:45.166Z,9.30
2022-08-26T21:00:16.066Z,11.47
2022-08-26T21:02:46.200Z,13.30
2022-08-26T21:05:14.679Z,8.37
2022-08-26T21:07:42.931Z,11.10
2022-08-26T21:10:11.816Z,11.37
2022-08-26T21:12:40.260Z,8.67
2022-08-26T21:15:10.704Z,7.97
2022-08-26T21:17:38.927Z,6.83
2022-08-26T21:20:07.650Z,8.77
2022-08-26T21:22:35.895Z,6.53
2022-08-26T21:25:04.295Z,9.13
2022-08-26T21:27:32.492Z,9.43
2022-08-26T21:30:00.708Z,9.50
2022-08-26T21:32:30.272Z,6.80
2022-08-26T21:34:59.252Z,4.57
2022-08-26T21:37:27.888Z,7.50
2022-08-26T21:39:56.812Z,8.47
2022-08-26T21:42:26.481Z,5.43
2022-08-26T21:44:55.116Z,6.47
2022-08-26T21:47:24.338Z,5.30
2022-08-26T21:49:54.009Z,5.57
2022-08-26T21:52:22.504Z,5.97
2022-08-26T21:54:50.760Z,5.27
2022-08-26T21:57:18.974Z,5.07
2022-08-26T21:59:47.247Z,5.73
2022-08-26T22:02:15.613Z,4.90
2022-08-26T22:04:48.570Z,5.43
2022-08-26T22:07:19.723Z,4.83
2022-08-26T22:09:48.548Z,7.63
2022-08-26T22:12:18.324Z,7.03
2022-08-26T22:14:46.972Z,5.63
2022-08-26T22:17:15.858Z,6.17
2022-08-26T22:19:46.234Z,6.03
2022-08-26T22:22:15.201Z,5.27
2022-08-26T22:24:44.777Z,7.23
2022-08-26T22:27:13.613Z,7.43
2022-08-26T22:29:42.235Z,6.23
2022-08-26T22:32:11.034Z,6.27
2022-08-26T22:34:39.341Z,5.70
2022-08-26T22:37:07.588Z,5.37
2022-08-26T22:39:35.810Z,5.90
2022-08-26T22:42:05.781Z,4.37
2022-08-26T22:44:36.456Z,5.23
2022-08-26T22:47:04.785Z,3.17
2022-08-26T22:49:33.007Z,6.67
2022-08-26T22:52:01.475Z,4.87
2022-08-26T22:54:29.769Z,5.30
2022-08-26T22:56:58.237Z,5.17
2022-08-26T22:59:27.882Z,8.27
2022-08-26T23:01:56.132Z,4.13
2022-08-26T23:04:24.343Z,6.20
2022-08-26T23:06:52.594Z,8.40
2022-08-26T23:09:21.179Z,5.73
2022-08-26T23:11:50.129Z,7.37
2022-08-26T23:14:18.967Z,6.70
2022-08-26T23:16:48.645Z,3.97
2022-08-26T23:19:18.013Z,6.20
2022-08-26T23:21:46.277Z,4.47
2022-08-26T23:24:14.810Z,4.03
2022-08-26T23:26:43.438Z,5.40
2022-08-26T23:29:13.053Z,8.43
2022-08-26T23:31:42.268Z,4.27
2022-08-26T23:34:29.584Z,6.50
2022-08-26T23:36:58.924Z,9.63
2022-08-26T23:39:27.226Z,7.30
2022-08-26T23:41:56.763Z,8.17
2022-08-26T23:44:26.401Z,8.37
2022-08-26T23:46:54.640Z,8.90
2022-08-26T23:49:24.227Z,6.53
2022-08-26T23:52:10.285Z,8.00
2022-08-26T23:54:38.800Z,8.00
2022-08-26T23:57:07.590Z,6.07
2022-08-26T23:59:35.858Z,8.03
